sensor_id;sensor_type;location;lat;lon;timestamp;pressure;altitude;pressure_sealevel;temperature;humidity
21102;BME280;10709;49.006;12.100;2023-04-24T00:02:05;48963.50;;;-146.00;100.00
21102;BME280;10709;49.006;12.100;2023-04-24T00:04:33;48961.53;;;-146.00;100.00
21102;BME280;10709;49.006;12.100;2023-04-24T00:07:00;48967.41;;;-146.00;100.00
21102;BME280;10709;49.006;12.100;2023-04-24T00:09:26;48967.41;;;-146.00;100.00
21102;BME280;10709;49.006;12.100;2023-04-24T00:11:53;48953.69;;;-146.00;100.00
21102;BME280;10709;49.006;12.100;2023-04-24T00:14:20;48953.69;;;-146.00;100.00
21102;BME280;10709;49.006;12.100;2023-04-24T00:16:46;48965.44;;;-146.00;100.00
21102;BME280;10709;49.006;12.100;2023-04-24T00:19:13;48965.44;;;-146.00;100.00
21102;BME280;10709;49.006;12.100;2023-04-24T00:21:40;48938.03;;;-146.00;100.00
21102;BME280;10709;49.006;12.100;2023-04-24T00:24:07;48961.53;;;-146.00;100.00
21102;BME280;10709;49.006;12.100;2023-04-24T00:26:35;48945.84;;;-146.00;100.00
21102;BME280;10709;49.006;12.100;2023-04-24T00:29:02;48938.03;;;-146.00;100.00
21102;BME280;10709;49.006;12.100;2023-04-24T00:31:28;48953.69;;;-146.00;100.00
21102;BME280;10709;49.006;12.100;2023-04-24T00:33:55;48941.94;;;-146.00;100.00
21102;BME280;10709;49.006;12.100;2023-04-24T00:36:21;48941.94;;;-146.00;100.00
21102;BME280;10709;49.006;12.100;2023-04-24T00:38:48;48949.78;;;-146.00;100.00
21102;BME280;10709;49.006;12.100;2023-04-24T00:41:14;48938.03;;;-146.00;100.00
21102;BME280;10709;49.006;12.100;2023-04-24T00:43:42;48939.97;;;-146.00;100.00
21102;BME280;10709;49.006;12.100;2023-04-24T00:46:08;48945.84;;;-146.00;100.00
21102;BME280;10709;49.006;12.100;2023-04-24T00:48:35;48934.09;;;-146.00;100.00
21102;BME280;10709;49.006;12.100;2023-04-24T00:51:01;48949.78;;;-146.00;100.00
21102;BME280;10709;49.006;12.100;2023-04-24T00:53:28;48953.69;;;-146.00;100.00
21102;BME280;10709;49.006;12.100;2023-04-24T00:55:54;48928.22;;;-146.00;100.00
21102;BME280;10709;49.006;12.100;2023-04-24T00:58:22;48934.09;;;-146.00;100.00
21102;BME280;10709;49.006;12.100;2023-04-24T01:00:50;48926.25;;;-146.00;100.00
21102;BME280;10709;49.006;12.100;2023-04-24T01:03:24;48938.03;;;-146.00;100.00
21102;BME280;10709;49.006;12.100;2023-04-24T01:05:54;48938.03;;;-146.00;100.00
21102;BME280;10709;49.006;12.100;2023-04-24T01:08:23;48943.91;;;-146.00;100.00
21102;BME280;10709;49.006;12.100;2023-04-24T01:10:54;48939.97;;;-146.00;100.00
21102;BME280;10709;49.006;12.100;2023-04-24T01:13:21;48939.97;;;-146.00;100.00
21102;BME280;10709;49.006;12.100;2023-04-24T01:15:48;48938.03;;;-146.00;100.00
21102;BME280;10709;49.006;12.100;2023-04-24T01:18:15;48930.19;;;-146.00;100.00
21102;BME280;10709;49.006;12.100;2023-04-24T01:21:03;48951.72;;;-146.00;100.00
21102;BME280;10709;49.006;12.100;2023-04-24T01:23:30;48930.19;;;-146.00;100.00
21102;BME280;10709;49.006;12.100;2023-04-24T01:25:56;48930.19;;;-146.00;100.00
21102;BME280;10709;49.006;12.100;2023-04-24T01:28:23;48938.03;;;-146.00;100.00
21102;BME280;10709;49.006;12.100;2023-04-24T01:30:49;48938.03;;;-146.00;100.00
21102;BME280;10709;49.006;12.100;2023-04-24T01:33:16;48939.97;;;-146.00;100.00
21102;BME280;10709;49.006;12.100;2023-04-24T01:35:43;48930.19;;;-146.00;100.00
21102;BME280;10709;49.006;12.100;2023-04-24T01:38:10;48930.19;;;-146.00;100.00
21102;BME280;10709;49.006;12.100;2023-04-24T01:40:38;48930.19;;;-146.00;100.00
21102;BME280;10709;49.006;12.100;2023-04-24T01:43:05;48926.25;;;-146.00;100.00
21102;BME280;10709;49.006;12.100;2023-04-24T01:45:31;48922.34;;;-146.00;100.00
21102;BME280;10709;49.006;12.100;2023-04-24T01:47:58;48926.25;;;-146.00;100.00
21102;BME280;10709;49.006;12.100;2023-04-24T01:50:25;48926.25;;;-146.00;100.00
21102;BME280;10709;49.006;12.100;2023-04-24T01:52:52;48930.19;;;-146.00;100.00
21102;BME280;10709;49.006;12.100;2023-04-24T01:55:18;48906.69;;;-146.00;100.00
21102;BME280;10709;49.006;12.100;2023-04-24T01:57:45;48918.44;;;-146.00;100.00
21102;BME280;10709;49.006;12.100;2023-04-24T02:00:12;48912.56;;;-146.00;100.00
21102;BME280;10709;49.006;12.100;2023-04-24T02:02:39;48914.50;;;-146.00;100.00
21102;BME280;10709;49.006;12.100;2023-04-24T02:05:10;48922.34;;;-146.00;100.00
21102;BME280;10709;49.006;12.100;2023-04-24T02:07:37;48920.38;;;-146.00;100.00
21102;BME280;10709;49.006;12.100;2023-04-24T02:10:04;48918.44;;;-146.00;100.00
21102;BME280;10709;49.006;12.100;2023-04-24T02:12:31;48914.50;;;-146.00;100.00
21102;BME280;10709;49.006;12.100;2023-04-24T02:14:58;48922.34;;;-146.00;100.00
21102;BME280;10709;49.006;12.100;2023-04-24T02:17:25;48916.47;;;-146.00;100.00
21102;BME280;10709;49.006;12.100;2023-04-24T02:19:52;48914.50;;;-146.00;100.00
21102;BME280;10709;49.006;12.100;2023-04-24T02:22:18;48910.59;;;-146.00;100.00
21102;BME280;10709;49.006;12.100;2023-04-24T02:25:05;48904.72;;;-146.00;100.00
21102;BME280;10709;49.006;12.100;2023-04-24T02:27:31;48908.63;;;-146.00;100.00
21102;BME280;10709;49.006;12.100;2023-04-24T02:29:58;48922.34;;;-146.00;100.00
21102;BME280;10709;49.006;12.100;2023-04-24T02:32:24;48914.50;;;-146.00;100.00
21102;BME280;10709;49.006;12.100;2023-04-24T02:34:51;48906.69;;;-146.00;100.00
21102;BME280;10709;49.006;12.100;2023-04-24T02:37:17;48910.59;;;-146.00;100.00
21102;BME280;10709;49.006;12.100;2023-04-24T02:39:44;48894.91;;;-146.00;100.00
21102;BME280;10709;49.006;12.100;2023-04-24T02:42:10;48910.59;;;-146.00;100.00
21102;BME280;10709;49.006;12.100;2023-04-24T02:44:37;48916.47;;;-146.00;100.00
21102;BME280;10709;49.006;12.100;2023-04-24T02:47:03;48910.59;;;-146.00;100.00
21102;BME280;10709;49.006;12.100;2023-04-24T02:49:30;48906.69;;;-146.00;100.00
21102;BME280;10709;49.006;12.100;2023-04-24T02:51:57;48908.63;;;-146.00;100.00
21102;BME280;10709;49.006;12.100;2023-04-24T02:54:24;48904.72;;;-146.00;100.00
21102;BME280;10709;49.006;12.100;2023-04-24T02:56:50;48906.69;;;-146.00;100.00
21102;BME280;10709;49.006;12.100;2023-04-24T02:59:17;48902.75;;;-146.00;100.00
21102;BME280;10709;49.006;12.100;2023-04-24T03:01:44;48910.59;;;-146.00;100.00
21102;BME280;10709;49.006;12.100;2023-04-24T03:04:12;48902.75;;;-146.00;100.00
21102;BME280;10709;49.006;12.100;2023-04-24T03:06:39;48904.72;;;-146.00;100.00
21102;BME280;10709;49.006;12.100;2023-04-24T03:09:05;48900.78;;;-146.00;100.00
21102;BME280;10709;49.006;12.100;2023-04-24T03:11:32;48894.91;;;-146.00;100.00
21102;BME280;10709;49.006;12.100;2023-04-24T03:13:58;48906.69;;;-146.00;100.00
21102;BME280;10709;49.006;12.100;2023-04-24T03:16:25;48910.59;;;-146.00;100.00
21102;BME280;10709;49.006;12.100;2023-04-24T03:18:52;48902.75;;;-146.00;100.00
21102;BME280;10709;49.006;12.100;2023-04-24T03:21:19;48914.50;;;-146.00;100.00
21102;BME280;10709;49.006;12.100;2023-04-24T03:23:45;48906.69;;;-146.00;100.00
21102;BME280;10709;49.006;12.100;2023-04-24T03:26:12;48902.75;;;-146.00;100.00
21102;BME280;10709;49.006;12.100;2023-04-24T03:28:38;48904.72;;;-146.00;100.00
21102;BME280;10709;49.006;12.100;2023-04-24T03:31:05;48902.75;;;-146.00;100.00
21102;BME280;10709;49.006;12.100;2023-04-24T03:33:32;48898.84;;;-146.00;100.00
21102;BME280;10709;49.006;12.100;2023-04-24T03:35:58;48894.91;;;-146.00;100.00
21102;BME280;10709;49.006;12.100;2023-04-24T03:38:25;48894.91;;;-146.00;100.00
21102;BME280;10709;49.006;12.100;2023-04-24T03:40:51;48894.91;;;-146.00;100.00
21102;BME280;10709;49.006;12.100;2023-04-24T03:43:18;48885.13;;;-146.00;100.00
21102;BME280;10709;49.006;12.100;2023-04-24T03:45:44;48889.03;;;-146.00;100.00
21102;BME280;10709;49.006;12.100;2023-04-24T03:48:11;48898.84;;;-146.00;100.00
21102;BME280;10709;49.006;12.100;2023-04-24T03:50:37;48883.16;;;-146.00;100.00
21102;BME280;10709;49.006;12.100;2023-04-24T03:53:04;48891.00;;;-146.00;100.00
21102;BME280;10709;49.006;12.100;2023-04-24T03:55:30;48891.00;;;-146.00;100.00
21102;BME280;10709;49.006;12.100;2023-04-24T03:57:57;48885.13;;;-146.00;100.00
21102;BME280;10709;49.006;12.100;2023-04-24T04:00:23;48887.09;;;-146.00;100.00
21102;BME280;10709;49.006;12.100;2023-04-24T04:02:50;48887.09;;;-146.00;100.00
21102;BME280;10709;49.006;12.100;2023-04-24T04:05:16;48883.16;;;-146.00;100.00
21102;BME280;10709;49.006;12.100;2023-04-24T04:07:43;48891.00;;;-146.00;100.00
21102;BME280;10709;49.006;12.100;2023-04-24T04:10:09;48883.16;;;-146.00;100.00
21102;BME280;10709;49.006;12.100;2023-04-24T04:12:36;48887.09;;;-146.00;100.00
21102;BME280;10709;49.006;12.100;2023-04-24T04:15:03;48879.25;;;-146.00;100.00
21102;BME280;10709;49.006;12.100;2023-04-24T04:17:30;48891.00;;;-146.00;100.00
21102;BME280;10709;49.006;12.100;2023-04-24T04:19:56;48887.09;;;-146.00;100.00
21102;BME280;10709;49.006;12.100;2023-04-24T04:22:23;48891.00;;;-146.00;100.00
21102;BME280;10709;49.006;12.100;2023-04-24T04:24:50;48883.16;;;-146.00;100.00
21102;BME280;10709;49.006;12.100;2023-04-24T04:27:17;48883.16;;;-146.00;100.00
21102;BME280;10709;49.006;12.100;2023-04-24T04:29:44;48887.09;;;-146.00;100.00
21102;BME280;10709;49.006;12.100;2023-04-24T04:32:11;48879.25;;;-146.00;100.00
21102;BME280;10709;49.006;12.100;2023-04-24T04:34:37;48892.97;;;-146.00;100.00
21102;BME280;10709;49.006;12.100;2023-04-24T04:37:05;48887.09;;;-146.00;100.00
21102;BME280;10709;49.006;12.100;2023-04-24T04:39:32;48898.84;;;-146.00;100.00
21102;BME280;10709;49.006;12.100;2023-04-24T04:41:59;48883.16;;;-146.00;100.00
21102;BME280;10709;49.006;12.100;2023-04-24T04:44:26;48887.09;;;-146.00;100.00
21102;BME280;10709;49.006;12.100;2023-04-24T04:46:56;48887.09;;;-146.00;100.00
21102;BME280;10709;49.006;12.100;2023-04-24T04:49:23;48883.16;;;-146.00;100.00
21102;BME280;10709;49.006;12.100;2023-04-24T04:51:50;48883.16;;;-146.00;100.00
21102;BME280;10709;49.006;12.100;2023-04-24T04:54:17;48891.00;;;-146.00;100.00
21102;BME280;10709;49.006;12.100;2023-04-24T04:56:43;48887.09;;;-146.00;100.00
21102;BME280;10709;49.006;12.100;2023-04-24T04:59:10;48889.03;;;-146.00;100.00
21102;BME280;10709;49.006;12.100;2023-04-24T05:01:37;48887.09;;;-146.00;100.00
21102;BME280;10709;49.006;12.100;2023-04-24T05:04:04;48879.25;;;-146.00;100.00
21102;BME280;10709;49.006;12.100;2023-04-24T05:06:30;48881.22;;;-146.00;100.00
21102;BME280;10709;49.006;12.100;2023-04-24T05:08:57;48887.09;;;-146.00;100.00
21102;BME280;10709;49.006;12.100;2023-04-24T05:11:23;48887.09;;;-146.00;100.00
21102;BME280;10709;49.006;12.100;2023-04-24T05:13:50;48883.16;;;-146.00;100.00
21102;BME280;10709;49.006;12.100;2023-04-24T05:16:16;48879.25;;;-146.00;100.00
21102;BME280;10709;49.006;12.100;2023-04-24T05:18:43;48883.16;;;-146.00;100.00
21102;BME280;10709;49.006;12.100;2023-04-24T05:21:09;48885.13;;;-146.00;100.00
21102;BME280;10709;49.006;12.100;2023-04-24T05:23:36;48879.25;;;-146.00;100.00
21102;BME280;10709;49.006;12.100;2023-04-24T05:26:02;48879.25;;;-146.00;100.00
21102;BME280;10709;49.006;12.100;2023-04-24T05:28:32;48889.03;;;-146.00;100.00
21102;BME280;10709;49.006;12.100;2023-04-24T05:30:59;48881.22;;;-146.00;100.00
21102;BME280;10709;49.006;12.100;2023-04-24T05:33:26;48883.16;;;-146.00;100.00
21102;BME280;10709;49.006;12.100;2023-04-24T05:35:52;48883.16;;;-146.00;100.00
21102;BME280;10709;49.006;12.100;2023-04-24T05:38:18;48883.16;;;-146.00;100.00
21102;BME280;10709;49.006;12.100;2023-04-24T05:40:45;48883.16;;;-146.00;100.00
21102;BME280;10709;49.006;12.100;2023-04-24T05:43:12;48883.16;;;-146.00;100.00
21102;BME280;10709;49.006;12.100;2023-04-24T05:45:39;48883.16;;;-146.00;100.00
21102;BME280;10709;49.006;12.100;2023-04-24T05:48:06;48891.00;;;-146.00;100.00
21102;BME280;10709;49.006;12.100;2023-04-24T05:50:32;48889.03;;;-146.00;100.00
21102;BME280;10709;49.006;12.100;2023-04-24T05:53:02;48891.00;;;-146.00;100.00
21102;BME280;10709;49.006;12.100;2023-04-24T05:55:29;48883.16;;;-146.00;100.00
21102;BME280;10709;49.006;12.100;2023-04-24T05:57:56;48883.16;;;-146.00;100.00
21102;BME280;10709;49.006;12.100;2023-04-24T06:00:23;48885.13;;;-146.00;100.00
21102;BME280;10709;49.006;12.100;2023-04-24T06:02:50;48889.03;;;-146.00;100.00
21102;BME280;10709;49.006;12.100;2023-04-24T06:05:19;48891.00;;;-146.00;100.00
21102;BME280;10709;49.006;12.100;2023-04-24T06:07:46;48891.00;;;-146.00;100.00
21102;BME280;10709;49.006;12.100;2023-04-24T06:10:12;48891.00;;;-146.00;100.00
21102;BME280;10709;49.006;12.100;2023-04-24T06:12:39;48894.91;;;-146.00;100.00
21102;BME280;10709;49.006;12.100;2023-04-24T06:15:06;48891.00;;;-146.00;100.00
21102;BME280;10709;49.006;12.100;2023-04-24T06:17:33;48889.03;;;-146.00;100.00
21102;BME280;10709;49.006;12.100;2023-04-24T06:19:59;48894.91;;;-146.00;100.00
21102;BME280;10709;49.006;12.100;2023-04-24T06:22:26;48879.25;;;-146.00;100.00
21102;BME280;10709;49.006;12.100;2023-04-24T06:24:52;48891.00;;;-146.00;100.00
21102;BME280;10709;49.006;12.100;2023-04-24T06:27:18;48902.75;;;-146.00;100.00
21102;BME280;10709;49.006;12.100;2023-04-24T06:29:45;48898.84;;;-146.00;100.00
21102;BME280;10709;49.006;12.100;2023-04-24T06:32:11;48900.78;;;-146.00;100.00
21102;BME280;10709;49.006;12.100;2023-04-24T06:34:38;48906.69;;;-146.00;100.00
21102;BME280;10709;49.006;12.100;2023-04-24T06:37:04;48906.69;;;-146.00;100.00
21102;BME280;10709;49.006;12.100;2023-04-24T06:39:31;48898.84;;;-146.00;100.00
21102;BME280;10709;49.006;12.100;2023-04-24T06:41:58;48894.91;;;-146.00;100.00
21102;BME280;10709;49.006;12.100;2023-04-24T06:44:25;48898.84;;;-146.00;100.00
21102;BME280;10709;49.006;12.100;2023-04-24T06:46:51;48902.75;;;-146.00;100.00
21102;BME280;10709;49.006;12.100;2023-04-24T06:49:18;48902.75;;;-146.00;100.00
21102;BME280;10709;49.006;12.100;2023-04-24T06:51:44;48906.69;;;-146.00;100.00
21102;BME280;10709;49.006;12.100;2023-04-24T06:54:11;48910.59;;;-146.00;100.00
21102;BME280;10709;49.006;12.100;2023-04-24T06:56:38;48926.25;;;-146.00;100.00
21102;BME280;10709;49.006;12.100;2023-04-24T06:59:05;48926.25;;;-146.00;100.00
21102;BME280;10709;49.006;12.100;2023-04-24T07:01:32;48918.44;;;-146.00;100.00
21102;BME280;10709;49.006;12.100;2023-04-24T07:03:58;48924.31;;;-146.00;100.00
21102;BME280;10709;49.006;12.100;2023-04-24T07:06:25;48930.19;;;-146.00;100.00
21102;BME280;10709;49.006;12.100;2023-04-24T07:08:53;48938.03;;;-146.00;100.00
21102;BME280;10709;49.006;12.100;2023-04-24T07:11:20;48924.31;;;-146.00;100.00
21102;BME280;10709;49.006;12.100;2023-04-24T07:13:47;48920.38;;;-146.00;100.00
21102;BME280;10709;49.006;12.100;2023-04-24T07:16:13;48918.44;;;-146.00;100.00
21102;BME280;10709;49.006;12.100;2023-04-24T07:18:40;48938.03;;;-146.00;100.00
21102;BME280;10709;49.006;12.100;2023-04-24T07:21:07;48934.09;;;-146.00;100.00
21102;BME280;10709;49.006;12.100;2023-04-24T07:23:33;48945.84;;;-146.00;100.00
21102;BME280;10709;49.006;12.100;2023-04-24T07:26:00;48953.69;;;-146.00;100.00
21102;BME280;10709;49.006;12.100;2023-04-24T07:28:26;48953.69;;;-146.00;100.00
21102;BME280;10709;49.006;12.100;2023-04-24T07:30:53;48938.03;;;-146.00;100.00
21102;BME280;10709;49.006;12.100;2023-04-24T07:33:20;48959.56;;;-146.00;100.00
21102;BME280;10709;49.006;12.100;2023-04-24T07:35:47;48932.13;;;-146.00;100.00
21102;BME280;10709;49.006;12.100;2023-04-24T07:38:13;48945.84;;;-146.00;100.00
21102;BME280;10709;49.006;12.100;2023-04-24T07:40:40;48957.59;;;-146.00;100.00
21102;BME280;10709;49.006;12.100;2023-04-24T07:43:06;48957.59;;;-146.00;100.00
21102;BME280;10709;49.006;12.100;2023-04-24T07:45:33;48955.66;;;-146.00;100.00
21102;BME280;10709;49.006;12.100;2023-04-24T07:48:03;48957.59;;;-146.00;100.00
21102;BME280;10709;49.006;12.100;2023-04-24T07:50:29;48957.59;;;-146.00;100.00
21102;BME280;10709;49.006;12.100;2023-04-24T07:52:56;48957.59;;;-146.00;100.00
21102;BME280;10709;49.006;12.100;2023-04-24T07:55:23;48977.19;;;-146.00;100.00
21102;BME280;10709;49.006;12.100;2023-04-24T07:57:53;48977.19;;;-146.00;100.00
21102;BME280;10709;49.006;12.100;2023-04-24T08:00:20;48969.38;;;-146.00;100.00
21102;BME280;10709;49.006;12.100;2023-04-24T08:02:47;48973.28;;;-146.00;100.00
21102;BME280;10709;49.006;12.100;2023-04-24T08:05:14;48973.28;;;-146.00;100.00
21102;BME280;10709;49.006;12.100;2023-04-24T08:07:40;48981.13;;;-146.00;100.00
21102;BME280;10709;49.006;12.100;2023-04-24T08:10:10;48977.19;;;-146.00;100.00
21102;BME280;10709;49.006;12.100;2023-04-24T08:12:37;48981.13;;;-146.00;99.51
21102;BME280;10709;49.006;12.100;2023-04-24T08:15:05;49004.63;;;-146.00;98.57
21102;BME280;10709;49.006;12.100;2023-04-24T08:17:31;49000.72;;;-146.00;98.57
21102;BME280;10709;49.006;12.100;2023-04-24T08:19:57;49010.50;;;-146.00;96.65
21102;BME280;10709;49.006;12.100;2023-04-24T08:22:28;49006.59;;;-146.00;94.27
21102;BME280;10709;49.006;12.100;2023-04-24T08:24:55;49020.31;;;-146.00;93.17
21102;BME280;10709;49.006;12.100;2023-04-24T08:27:23;49032.06;;;-146.00;93.26
21102;BME280;10709;49.006;12.100;2023-04-24T08:29:50;49024.22;;;-146.00;91.96
21102;BME280;10709;49.006;12.100;2023-04-24T08:32:16;49028.13;;;-146.00;93.03
21102;BME280;10709;49.006;12.100;2023-04-24T08:34:43;49043.81;;;-146.00;91.43
21102;BME280;10709;49.006;12.100;2023-04-24T08:37:09;49008.53;;;-146.00;83.33
21102;BME280;10709;49.006;12.100;2023-04-24T08:39:36;48963.50;;;-146.00;80.48
21102;BME280;10709;49.006;12.100;2023-04-24T08:42:04;48945.84;;;-146.00;81.89
21102;BME280;10709;49.006;12.100;2023-04-24T08:44:35;48963.50;;;-146.00;81.00
21102;BME280;10709;49.006;12.100;2023-04-24T08:47:02;48977.19;;;-146.00;82.63
21102;BME280;10709;49.006;12.100;2023-04-24T08:49:29;49024.22;;;-146.00;84.82
21102;BME280;10709;49.006;12.100;2023-04-24T08:51:56;49035.97;;;-146.00;86.23
21102;BME280;10709;49.006;12.100;2023-04-24T08:54:23;49020.31;;;-146.00;88.42
21102;BME280;10709;49.006;12.100;2023-04-24T08:56:50;49030.09;;;-146.00;89.38
21102;BME280;10709;49.006;12.100;2023-04-24T08:59:17;49047.72;;;-146.00;89.79
21102;BME280;10709;49.006;12.100;2023-04-24T09:01:45;49016.38;;;-146.00;89.59
21102;BME280;10709;49.006;12.100;2023-04-24T09:04:14;49049.69;;;-146.00;91.53
21102;BME280;10709;49.006;12.100;2023-04-24T09:06:42;49041.84;;;-146.00;91.04
21102;BME280;10709;49.006;12.100;2023-04-24T09:09:10;49032.06;;;-146.00;89.40
21102;BME280;10709;49.006;12.100;2023-04-24T09:11:37;49022.25;;;-146.00;88.79
21102;BME280;10709;49.006;12.100;2023-04-24T09:14:04;49086.91;;;-146.00;88.92
21102;BME280;10709;49.006;12.100;2023-04-24T09:16:30;49041.84;;;-146.00;88.21
21102;BME280;10709;49.006;12.100;2023-04-24T09:19:02;49043.81;;;-146.00;88.82
21102;BME280;10709;49.006;12.100;2023-04-24T09:21:33;49053.59;;;-146.00;89.96
21102;BME280;10709;49.006;12.100;2023-04-24T09:24:03;49059.47;;;-146.00;90.88
21102;BME280;10709;49.006;12.100;2023-04-24T09:26:30;49035.97;;;-146.00;89.83
21102;BME280;10709;49.006;12.100;2023-04-24T09:29:00;49059.47;;;-146.00;90.39
21102;BME280;10709;49.006;12.100;2023-04-24T09:31:28;49039.88;;;-146.00;89.34
21102;BME280;10709;49.006;12.100;2023-04-24T09:34:02;49051.66;;;-146.00;87.79
21102;BME280;10709;49.006;12.100;2023-04-24T09:36:35;49079.06;;;-146.00;86.93
21102;BME280;10709;49.006;12.100;2023-04-24T09:39:05;49055.56;;;-146.00;87.70
21102;BME280;10709;49.006;12.100;2023-04-24T09:41:32;49059.47;;;-146.00;85.14
21102;BME280;10709;49.006;12.100;2023-04-24T09:44:34;49024.22;;;-146.00;85.86
21102;BME280;10709;49.006;12.100;2023-04-24T09:47:00;49022.25;;;-146.00;86.52
21102;BME280;10709;49.006;12.100;2023-04-24T09:49:28;49035.97;;;-146.00;86.53
21102;BME280;10709;49.006;12.100;2023-04-24T09:52:10;49063.41;;;-146.00;84.71
21102;BME280;10709;49.006;12.100;2023-04-24T09:54:38;49004.63;;;-146.00;83.61
21102;BME280;10709;49.006;12.100;2023-04-24T09:57:05;48996.78;;;-146.00;83.56
21102;BME280;10709;49.006;12.100;2023-04-24T09:59:33;49018.34;;;-146.00;82.37
21102;BME280;10709;49.006;12.100;2023-04-24T10:02:02;48975.25;;;-146.00;79.95
21102;BME280;10709;49.006;12.100;2023-04-24T10:04:29;49004.63;;;-146.00;80.23
21102;BME280;10709;49.006;12.100;2023-04-24T10:06:56;48922.34;;;-146.00;77.79
21102;BME280;10709;49.006;12.100;2023-04-24T10:09:25;48896.88;;;-146.00;76.20
21102;BME280;10709;49.006;12.100;2023-04-24T10:11:53;48885.13;;;-146.00;77.59
21102;BME280;10709;49.006;12.100;2023-04-24T10:14:24;48894.91;;;-146.00;76.41
21102;BME280;10709;49.006;12.100;2023-04-24T10:16:55;48883.16;;;-146.00;75.95
21102;BME280;10709;49.006;12.100;2023-04-24T10:19:25;48914.50;;;-146.00;75.60
21102;BME280;10709;49.006;12.100;2023-04-24T10:21:52;48879.25;;;-146.00;75.26
21102;BME280;10709;49.006;12.100;2023-04-24T10:24:20;48859.66;;;-146.00;75.53
21102;BME280;10709;49.006;12.100;2023-04-24T10:26:47;48871.41;;;-146.00;75.54
21102;BME280;10709;49.006;12.100;2023-04-24T10:29:18;48836.16;;;-146.00;70.78
21102;BME280;10709;49.006;12.100;2023-04-24T10:31:45;48828.31;;;-146.00;71.45
21102;BME280;10709;49.006;12.100;2023-04-24T10:34:15;48853.78;;;-146.00;70.24
21102;BME280;10709;49.006;12.100;2023-04-24T10:36:47;48836.16;;;-146.00;71.42
21102;BME280;10709;49.006;12.100;2023-04-24T10:39:15;48808.72;;;-146.00;70.19
21102;BME280;10709;49.006;12.100;2023-04-24T10:41:42;48804.81;;;-146.00;66.84
21102;BME280;10709;49.006;12.100;2023-04-24T10:44:11;48798.94;;;-146.00;68.65
21102;BME280;10709;49.006;12.100;2023-04-24T10:46:43;48800.88;;;-146.00;67.49
21102;BME280;10709;49.006;12.100;2023-04-24T10:49:09;48763.66;;;-146.00;66.46
21102;BME280;10709;49.006;12.100;2023-04-24T10:51:53;48804.81;;;-146.00;65.63
21102;BME280;10709;49.006;12.100;2023-04-24T10:54:23;48810.69;;;-146.00;66.72
21102;BME280;10709;49.006;12.100;2023-04-24T10:56:51;48796.97;;;-146.00;67.40
21102;BME280;10709;49.006;12.100;2023-04-24T10:59:25;48785.22;;;-146.00;66.50
21102;BME280;10709;49.006;12.100;2023-04-24T11:01:55;48793.06;;;-146.00;63.84
21102;BME280;10709;49.006;12.100;2023-04-24T11:04:32;48759.75;;;-146.00;61.83
21102;BME280;10709;49.006;12.100;2023-04-24T11:06:59;48789.13;;;-146.00;64.18
21102;BME280;10709;49.006;12.100;2023-04-24T11:09:27;48796.97;;;-146.00;63.00
21102;BME280;10709;49.006;12.100;2023-04-24T11:12:08;48769.53;;;-146.00;60.92
21102;BME280;10709;49.006;12.100;2023-04-24T11:17:35;48804.81;;;-146.00;63.60
21102;BME280;10709;49.006;12.100;2023-04-24T11:20:05;48769.53;;;-146.00;62.37
21102;BME280;10709;49.006;12.100;2023-04-24T11:22:54;48777.38;;;-146.00;62.86
21102;BME280;10709;49.006;12.100;2023-04-24T11:25:22;48814.59;;;-146.00;64.39
21102;BME280;10709;49.006;12.100;2023-04-24T11:28:03;48769.53;;;-146.00;65.15
21102;BME280;10709;49.006;12.100;2023-04-24T11:30:31;48800.88;;;-146.00;65.76
21102;BME280;10709;49.006;12.100;2023-04-24T11:33:02;48777.38;;;-146.00;65.96
21102;BME280;10709;49.006;12.100;2023-04-24T11:35:29;48804.81;;;-146.00;67.29
21102;BME280;10709;49.006;12.100;2023-04-24T11:38:02;48804.81;;;-146.00;68.02
21102;BME280;10709;49.006;12.100;2023-04-24T11:40:49;48816.56;;;-146.00;69.60
21102;BME280;10709;49.006;12.100;2023-04-24T11:43:16;48828.31;;;-146.00;70.35
21102;BME280;10709;49.006;12.100;2023-04-24T11:45:48;48804.81;;;-146.00;70.10
21102;BME280;10709;49.006;12.100;2023-04-24T11:48:19;48812.63;;;-146.00;69.54
21102;BME280;10709;49.006;12.100;2023-04-24T11:50:48;48816.56;;;-146.00;70.22
21102;BME280;10709;49.006;12.100;2023-04-24T11:53:15;48800.88;;;-146.00;70.79
21102;BME280;10709;49.006;12.100;2023-04-24T11:55:41;48800.88;;;-146.00;71.40
21102;BME280;10709;49.006;12.100;2023-04-24T11:58:07;48808.72;;;-146.00;68.94
21102;BME280;10709;49.006;12.100;2023-04-24T12:00:34;48800.88;;;-146.00;68.17
21102;BME280;10709;49.006;12.100;2023-04-24T12:03:06;48793.06;;;-146.00;67.99
21102;BME280;10709;49.006;12.100;2023-04-24T12:05:33;48804.81;;;-146.00;64.97
21102;BME280;10709;49.006;12.100;2023-04-24T12:08:01;48765.63;;;-146.00;65.23
21102;BME280;10709;49.006;12.100;2023-04-24T12:10:29;48787.19;;;-146.00;64.84
21102;BME280;10709;49.006;12.100;2023-04-24T12:12:57;48757.78;;;-146.00;62.21
21102;BME280;10709;49.006;12.100;2023-04-24T12:15:25;48785.22;;;-146.00;63.72
21102;BME280;10709;49.006;12.100;2023-04-24T12:17:52;48804.81;;;-146.00;63.80
21102;BME280;10709;49.006;12.100;2023-04-24T12:20:32;48785.22;;;-146.00;62.89
21102;BME280;10709;49.006;12.100;2023-04-24T12:23:00;48777.38;;;-146.00;63.76
21102;BME280;10709;49.006;12.100;2023-04-24T12:25:38;48777.38;;;-146.00;61.06
21102;BME280;10709;49.006;12.100;2023-04-24T12:30:33;48800.88;;;-146.00;63.19
21102;BME280;10709;49.006;12.100;2023-04-24T12:33:02;48789.13;;;-146.00;62.58